sensor_id;sensor_type;location;lat;lon;timestamp;temperature;humidity
77247;SHT35;66279;42.820;23.374;2023-06-14T01:13:53;14.77;91.69
77247;SHT35;66279;42.820;23.374;2023-06-14T01:16:19;14.79;91.97
77247;SHT35;66279;42.820;23.374;2023-06-14T01:18:45;14.77;92.25
77247;SHT35;66279;42.820;23.374;2023-06-14T01:21:25;14.80;92.16
77247;SHT35;66279;42.820;23.374;2023-06-14T01:23:51;14.81;92.27
77247;SHT35;66279;42.820;23.374;2023-06-14T01:26:21;14.86;92.19
77247;SHT35;66279;42.820;23.374;2023-06-14T01:28:48;14.86;92.57
77247;SHT35;66279;42.820;23.374;2023-06-14T01:31:20;14.86;92.67
77247;SHT35;66279;42.820;23.374;2023-06-14T01:33:50;14.86;92.76
77247;SHT35;66279;42.820;23.374;2023-06-14T01:36:19;14.91;92.47
77247;SHT35;66279;42.820;23.374;2023-06-14T01:38:46;14.96;92.28
77247;SHT35;66279;42.820;23.374;2023-06-14T01:41:14;15.06;92.20
77247;SHT35;66279;42.820;23.374;2023-06-14T03:17:21;15.70;91.54
77247;SHT35;66279;42.820;23.374;2023-06-14T05:42:37;18.16;86.07
77247;SHT35;66279;42.820;23.374;2023-06-14T05:45:02;18.21;85.75
77247;SHT35;66279;42.820;23.374;2023-06-14T05:47:28;18.28;86.22
77247;SHT35;66279;42.820;23.374;2023-06-14T05:49:54;18.25;85.37
77247;SHT35;66279;42.820;23.374;2023-06-14T05:52:20;18.36;85.89
77247;SHT35;66279;42.820;23.374;2023-06-14T05:54:46;18.41;85.93
77247;SHT35;66279;42.820;23.374;2023-06-14T05:57:12;18.38;84.98
77247;SHT35;66279;42.820;23.374;2023-06-14T05:59:37;18.33;84.88
77247;SHT35;66279;42.820;23.374;2023-06-14T06:02:03;18.49;85.66
77247;SHT35;66279;42.820;23.374;2023-06-14T06:04:28;18.57;85.39
77247;SHT35;66279;42.820;23.374;2023-06-14T06:06:54;18.67;84.88
77247;SHT35;66279;42.820;23.374;2023-06-14T06:09:20;18.87;84.51
77247;SHT35;66279;42.820;23.374;2023-06-14T06:11:45;18.94;84.62
77247;SHT35;66279;42.820;23.374;2023-06-14T06:14:11;19.01;83.47
77247;SHT35;66279;42.820;23.374;2023-06-14T06:16:37;19.06;83.71
77247;SHT35;66279;42.820;23.374;2023-06-14T06:19:02;19.07;82.99
77247;SHT35;66279;42.820;23.374;2023-06-14T06:21:28;18.90;81.84
77247;SHT35;66279;42.820;23.374;2023-06-14T06:23:54;19.01;83.68
77247;SHT35;66279;42.820;23.374;2023-06-14T06:26:22;18.99;82.47
77247;SHT35;66279;42.820;23.374;2023-06-14T06:28:48;18.83;80.94
77247;SHT35;66279;42.820;23.374;2023-06-14T06:31:13;18.77;80.23
77247;SHT35;66279;42.820;23.374;2023-06-14T06:33:39;18.97;82.36
77247;SHT35;66279;42.820;23.374;2023-06-14T06:36:05;19.21;81.97
77247;SHT35;66279;42.820;23.374;2023-06-14T06:38:31;19.31;80.64
77247;SHT35;66279;42.820;23.374;2023-06-14T06:40:56;19.51;81.95
77247;SHT35;66279;42.820;23.374;2023-06-14T06:43:22;19.70;79.57
77247;SHT35;66279;42.820;23.374;2023-06-14T06:45:48;19.76;81.22
77247;SHT35;66279;42.820;23.374;2023-06-14T06:48:13;19.93;79.20
77247;SHT35;66279;42.820;23.374;2023-06-14T06:50:39;19.97;80.96
77247;SHT35;66279;42.820;23.374;2023-06-14T06:53:05;20.10;81.03
77247;SHT35;66279;42.820;23.374;2023-06-14T06:55:32;20.30;81.00
77247;SHT35;66279;42.820;23.374;2023-06-14T06:57:57;20.27;79.03
77247;SHT35;66279;42.820;23.374;2023-06-14T07:00:23;20.38;79.77
77247;SHT35;66279;42.820;23.374;2023-06-14T07:02:49;20.30;75.92
77247;SHT35;66279;42.820;23.374;2023-06-14T07:57:24;24.06;69.29
77247;SHT35;66279;42.820;23.374;2023-06-14T07:59:49;24.03;66.77
77247;SHT35;66279;42.820;23.374;2023-06-14T08:02:15;24.27;70.83
77247;SHT35;66279;42.820;23.374;2023-06-14T08:04:41;24.46;71.96
77247;SHT35;66279;42.820;23.374;2023-06-14T08:07:07;24.80;68.51
77247;SHT35;66279;42.820;23.374;2023-06-14T08:09:33;25.39;67.29
77247;SHT35;66279;42.820;23.374;2023-06-14T08:11:58;25.14;58.42
77247;SHT35;66279;42.820;23.374;2023-06-14T08:14:24;25.47;64.59
77247;SHT35;66279;42.820;23.374;2023-06-14T08:16:49;25.73;62.98
77247;SHT35;66279;42.820;23.374;2023-06-14T08:19:15;26.16;61.80
77247;SHT35;66279;42.820;23.374;2023-06-14T08:21:42;26.29;61.51
77247;SHT35;66279;42.820;23.374;2023-06-14T08:24:11;26.48;64.20
77247;SHT35;66279;42.820;23.374;2023-06-14T08:26:38;26.32;58.49
77247;SHT35;66279;42.820;23.374;2023-06-14T08:29:04;26.42;56.00
77247;SHT35;66279;42.820;23.374;2023-06-14T08:31:32;26.17;62.85
77247;SHT35;66279;42.820;23.374;2023-06-14T08:33:58;26.53;57.44
77247;SHT35;66279;42.820;23.374;2023-06-14T08:36:23;26.69;53.17
77247;SHT35;66279;42.820;23.374;2023-06-14T08:38:49;27.10;54.40
77247;SHT35;66279;42.820;23.374;2023-06-14T08:41:21;27.31;59.15
77247;SHT35;66279;42.820;23.374;2023-06-14T08:43:47;27.23;54.45
77247;SHT35;66279;42.820;23.374;2023-06-14T08:46:13;27.40;49.75
77247;SHT35;66279;42.820;23.374;2023-06-14T08:48:41;27.02;59.56
77247;SHT35;66279;42.820;23.374;2023-06-14T08:51:09;27.61;54.44
77247;SHT35;66279;42.820;23.374;2023-06-14T08:53:36;27.84;48.41
77247;SHT35;66279;42.820;23.374;2023-06-14T08:56:08;28.06;51.82
77247;SHT35;66279;42.820;23.374;2023-06-14T08:58:41;27.84;45.33
77247;SHT35;66279;42.820;23.374;2023-06-14T09:01:11;28.43;51.77
77247;SHT35;66279;42.820;23.374;2023-06-14T09:03:42;28.81;47.10
77247;SHT35;66279;42.820;23.374;2023-06-14T09:06:08;29.29;55.53
77247;SHT35;66279;42.820;23.374;2023-06-14T09:08:46;29.26;46.94
77247;SHT35;66279;42.820;23.374;2023-06-14T09:11:15;28.97;47.54
77247;SHT35;66279;42.820;23.374;2023-06-14T09:13:42;29.52;47.80
77247;SHT35;66279;42.820;23.374;2023-06-14T09:16:08;29.32;50.49
77247;SHT35;66279;42.820;23.374;2023-06-14T09:18:38;29.77;43.26
77247;SHT35;66279;42.820;23.374;2023-06-14T09:21:07;29.53;45.14
77247;SHT35;66279;42.820;23.374;2023-06-14T09:23:40;29.97;50.99
77247;SHT35;66279;42.820;23.374;2023-06-14T09:28:36;30.64;48.85
77247;SHT35;66279;42.820;23.374;2023-06-14T09:31:02;30.95;48.97
77247;SHT35;66279;42.820;23.374;2023-06-14T09:33:28;30.17;46.15
77247;SHT35;66279;42.820;23.374;2023-06-14T09:35:56;30.41;46.39
77247;SHT35;66279;42.820;23.374;2023-06-14T09:38:22;30.34;40.15
77247;SHT35;66279;42.820;23.374;2023-06-14T09:40:49;30.03;41.55
77247;SHT35;66279;42.820;23.374;2023-06-14T09:43:15;30.40;42.06
77247;SHT35;66279;42.820;23.374;2023-06-14T09:45:42;30.49;40.78
77247;SHT35;66279;42.820;23.374;2023-06-14T09:48:11;30.04;47.89
77247;SHT35;66279;42.820;23.374;2023-06-14T09:50:37;29.87;45.79
77247;SHT35;66279;42.820;23.374;2023-06-14T09:53:10;30.51;43.06
77247;SHT35;66279;42.820;23.374;2023-06-14T09:55:37;30.92;47.94
77247;SHT35;66279;42.820;23.374;2023-06-14T09:58:07;31.53;46.69
77247;SHT35;66279;42.820;23.374;2023-06-14T10:00:33;31.94;44.01
77247;SHT35;66279;42.820;23.374;2023-06-14T10:03:12;31.89;40.00
77247;SHT35;66279;42.820;23.374;2023-06-14T10:05:39;31.89;42.06
77247;SHT35;66279;42.820;23.374;2023-06-14T10:08:13;31.71;43.86
77247;SHT35;66279;42.820;23.374;2023-06-14T10:10:42;30.71;39.76
77247;SHT35;66279;42.820;23.374;2023-06-14T10:13:08;30.90;41.04
77247;SHT35;66279;42.820;23.374;2023-06-14T10:23:53;32.16;44.99
77247;SHT35;66279;42.820;23.374;2023-06-14T10:26:22;31.98;42.84
77247;SHT35;66279;42.820;23.374;2023-06-14T10:29:08;31.94;38.41
77247;SHT35;66279;42.820;23.374;2023-06-14T10:31:45;32.24;39.59
77247;SHT35;66279;42.820;23.374;2023-06-14T10:34:12;32.43;40.68
77247;SHT35;66279;42.820;23.374;2023-06-14T10:36:40;32.63;44.97
77247;SHT35;66279;42.820;23.374;2023-06-14T10:39:08;31.31;38.22
77247;SHT35;66279;42.820;23.374;2023-06-14T10:41:37;31.56;40.06
77247;SHT35;66279;42.820;23.374;2023-06-14T10:46:39;32.08;42.95
77247;SHT35;66279;42.820;23.374;2023-06-14T10:49:05;32.42;38.43
77247;SHT35;66279;42.820;23.374;2023-06-14T10:51:51;32.62;39.69
77247;SHT35;66279;42.820;23.374;2023-06-14T10:54:21;32.80;40.29
77247;SHT35;66279;42.820;23.374;2023-06-14T10:56:48;32.82;40.05
77247;SHT35;66279;42.820;23.374;2023-06-14T10:59:14;32.76;37.23
77247;SHT35;66279;42.820;23.374;2023-06-14T11:04:48;33.44;40.36
77247;SHT35;66279;42.820;23.374;2023-06-14T11:12:47;33.96;36.09
77247;SHT35;66279;42.820;23.374;2023-06-14T11:15:13;34.10;34.67
77247;SHT35;66279;42.820;23.374;2023-06-14T11:17:38;34.13;35.76
77247;SHT35;66279;42.820;23.374;2023-06-14T11:20:12;33.35;39.14
77247;SHT35;66279;42.820;23.374;2023-06-14T11:22:43;33.41;35.55
77247;SHT35;66279;42.820;23.374;2023-06-14T11:25:13;33.59;37.01
77247;SHT35;66279;42.820;23.374;2023-06-14T11:27:38;33.55;37.60
77247;SHT35;66279;42.820;23.374;2023-06-14T11:30:07;33.48;37.46
77247;SHT35;66279;42.820;23.374;2023-06-14T11:32:32;33.72;40.72
77247;SHT35;66279;42.820;23.374;2023-06-14T11:35:01;34.13;35.38
77247;SHT35;66279;42.820;23.374;2023-06-14T11:37:27;34.39;34.26
77247;SHT35;66279;42.820;23.374;2023-06-14T11:39:57;33.88;37.09
77247;SHT35;66279;42.820;23.374;2023-06-14T11:42:26;33.81;33.56
77247;SHT35;66279;42.820;23.374;2023-06-14T11:44:53;33.73;35.35
77247;SHT35;66279;42.820;23.374;2023-06-14T11:47:18;33.78;36.66
77247;SHT35;66279;42.820;23.374;2023-06-14T11:49:44;33.40;37.96
77247;SHT35;66279;42.820;23.374;2023-06-14T11:52:10;33.50;39.32
77247;SHT35;66279;42.820;23.374;2023-06-14T11:54:37;34.12;36.50
77247;SHT35;66279;42.820;23.374;2023-06-14T11:57:03;33.99;35.10
77247;SHT35;66279;42.820;23.374;2023-06-14T11:59:30;33.41;35.71
77247;SHT35;66279;42.820;23.374;2023-06-14T12:01:56;32.72;38.89
77247;SHT35;66279;42.820;23.374;2023-06-14T12:04:26;32.84;38.60
77247;SHT35;66279;42.820;23.374;2023-06-14T12:06:52;32.45;38.99
77247;SHT35;66279;42.820;23.374;2023-06-14T12:09:21;32.51;39.31
77247;SHT35;66279;42.820;23.374;2023-06-14T12:12:00;32.76;39.64
77247;SHT35;66279;42.820;23.374;2023-06-14T12:14:30;33.55;38.19
77247;SHT35;66279;42.820;23.374;2023-06-14T12:17:06;34.21;37.99
77247;SHT35;66279;42.820;23.374;2023-06-14T12:19:32;34.17;36.92
77247;SHT35;66279;42.820;23.374;2023-06-14T12:21:59;33.76;36.37
77247;SHT35;66279;42.820;23.374;2023-06-14T12:24:29;33.89;36.02
77247;SHT35;66279;42.820;23.374;2023-06-14T12:26:58;34.36;35.26
77247;SHT35;66279;42.820;23.374;2023-06-14T12:29:28;34.40;35.18
77247;SHT35;66279;42.820;23.374;2023-06-14T12:31:54;34.50;37.11
77247;SHT35;66279;42.820;23.374;2023-06-14T12:34:23;33.88;39.27
77247;SHT35;66279;42.820;23.374;2023-06-14T12:36:50;34.33;37.05
77247;SHT35;66279;42.820;23.374;2023-06-14T12:39:16;34.63;37.02
77247;SHT35;66279;42.820;23.374;2023-06-14T12:41:42;34.57;37.68
77247;SHT35;66279;42.820;23.374;2023-06-14T12:44:08;34.88;36.46
77247;SHT35;66279;42.820;23.374;2023-06-14T12:46:34;35.24;34.85
77247;SHT35;66279;42.820;23.374;2023-06-14T12:49:00;34.32;34.64
77247;SHT35;66279;42.820;23.374;2023-06-14T12:51:26;34.16;36.38
77247;SHT35;66279;42.820;23.374;2023-06-14T12:53:52;33.35;38.16
77247;SHT35;66279;42.820;23.374;2023-06-14T12:56:17;31.88;40.68
77247;SHT35;66279;42.820;23.374;2023-06-14T12:58:43;31.64;41.33
77247;SHT35;66279;42.820;23.374;2023-06-14T13:01:09;30.55;43.26
77247;SHT35;66279;42.820;23.374;2023-06-14T13:03:34;30.35;44.05
77247;SHT35;66279;42.820;23.374;2023-06-14T13:06:01;29.87;43.03
77247;SHT35;66279;42.820;23.374;2023-06-14T13:08:28;29.31;45.25
77247;SHT35;66279;42.820;23.374;2023-06-14T13:10:53;29.07;44.28
77247;SHT35;66279;42.820;23.374;2023-06-14T13:13:19;29.05;45.11
77247;SHT35;66279;42.820;23.374;2023-06-14T13:15:45;29.10;44.18
77247;SHT35;66279;42.820;23.374;2023-06-14T13:18:15;29.05;45.34
77247;SHT35;66279;42.820;23.374;2023-06-14T13:20:41;28.88;44.68
77247;SHT35;66279;42.820;23.374;2023-06-14T13:23:07;28.91;45.08
77247;SHT35;66279;42.820;23.374;2023-06-14T13:25:34;29.04;44.76
77247;SHT35;66279;42.820;23.374;2023-06-14T13:27:59;28.91;45.30
77247;SHT35;66279;42.820;23.374;2023-06-14T13:30:25;29.08;43.76
77247;SHT35;66279;42.820;23.374;2023-06-14T13:32:51;29.33;45.25
77247;SHT35;66279;42.820;23.374;2023-06-14T13:35:18;29.28;44.05
77247;SHT35;66279;42.820;23.374;2023-06-14T13:37:43;28.54;46.66
77247;SHT35;66279;42.820;23.374;2023-06-14T13:40:09;28.25;47.64
77247;SHT35;66279;42.820;23.374;2023-06-14T13:42:35;27.96;48.03
77247;SHT35;66279;42.820;23.374;2023-06-14T13:45:02;27.99;48.13
77247;SHT35;66279;42.820;23.374;2023-06-14T13:47:28;27.78;48.42
77247;SHT35;66279;42.820;23.374;2023-06-14T13:49:53;27.22;48.38
77247;SHT35;66279;42.820;23.374;2023-06-14T13:52:19;27.08;49.33
77247;SHT35;66279;42.820;23.374;2023-06-14T13:54:45;27.03;49.03
77247;SHT35;66279;42.820;23.374;2023-06-14T13:57:10;27.29;49.08
77247;SHT35;66279;42.820;23.374;2023-06-14T13:59:38;26.93;50.42
77247;SHT35;66279;42.820;23.374;2023-06-14T14:02:04;26.37;54.72
77247;SHT35;66279;42.820;23.374;2023-06-14T14:04:31;26.22;55.64
77247;SHT35;66279;42.820;23.374;2023-06-14T14:06:56;26.08;56.90
77247;SHT35;66279;42.820;23.374;2023-06-14T14:09:22;24.51;61.41
77247;SHT35;66279;42.820;23.374;2023-06-14T14:11:47;23.64;65.78
77247;SHT35;66279;42.820;23.374;2023-06-14T14:14:14;22.83;68.78
77247;SHT35;66279;42.820;23.374;2023-06-14T14:16:39;22.18;71.07
77247;SHT35;66279;42.820;23.374;2023-06-14T14:19:05;21.86;71.38
77247;SHT35;66279;42.820;23.374;2023-06-14T14:21:32;21.57;73.76
77247;SHT35;66279;42.820;23.374;2023-06-14T14:23:58;21.54;72.65
77247;SHT35;66279;42.820;23.374;2023-06-14T14:26:23;21.53;73.80
77247;SHT35;66279;42.820;23.374;2023-06-14T14:28:50;21.57;74.45
77247;SHT35;66279;42.820;23.374;2023-06-14T14:31:16;21.81;75.17
77247;SHT35;66279;42.820;23.374;2023-06-14T14:33:42;22.08;71.11
77247;SHT35;66279;42.820;23.374;2023-06-14T14:36:07;22.09;71.94
77247;SHT35;66279;42.820;23.374;2023-06-14T14:38:33;22.09;72.09
77247;SHT35;66279;42.820;23.374;2023-06-14T14:40:59;21.88;74.64
77247;SHT35;66279;42.820;23.374;2023-06-14T14:43:24;21.61;76.00
77247;SHT35;66279;42.820;23.374;2023-06-14T14:45:50;21.39;77.58
77247;SHT35;66279;42.820;23.374;2023-06-14T14:48:16;21.18;78.69
77247;SHT35;66279;42.820;23.374;2023-06-14T14:50:41;21.13;78.26
77247;SHT35;66279;42.820;23.374;2023-06-14T14:53:06;21.22;77.48
77247;SHT35;66279;42.820;23.374;2023-06-14T14:55:32;21.51;74.72
77247;SHT35;66279;42.820;23.374;2023-06-14T14:58:00;21.80;76.37
77247;SHT35;66279;42.820;23.374;2023-06-14T15:00:26;21.83;75.33
77247;SHT35;66279;42.820;23.374;2023-06-14T15:02:51;21.64;76.24
77247;SHT35;66279;42.820;23.374;2023-06-14T15:05:17;21.56;75.97
77247;SHT35;66279;42.820;23.374;2023-06-14T15:07:42;21.50;76.80
77247;SHT35;66279;42.820;23.374;2023-06-14T15:10:09;21.40;77.40
77247;SHT35;66279;42.820;23.374;2023-06-14T15:12:35;21.26;77.72
77247;SHT35;66279;42.820;23.374;2023-06-14T15:15:02;21.29;78.29
77247;SHT35;66279;42.820;23.374;2023-06-14T15:17:27;21.10;78.49
77247;SHT35;66279;42.820;23.374;2023-06-14T15:19:54;21.16;77.47
77247;SHT35;66279;42.820;23.374;2023-06-14T15:22:19;21.39;78.16
77247;SHT35;66279;42.820;23.374;2023-06-14T15:24:45;21.58;77.20
77247;SHT35;66279;42.820;23.374;2023-06-14T15:27:13;21.71;76.64
77247;SHT35;66279;42.820;23.374;2023-06-14T15:29:41;21.77;75.75
77247;SHT35;66279;42.820;23.374;2023-06-14T15:32:07;21.93;75.20
77247;SHT35;66279;42.820;23.374;2023-06-14T15:34:33;22.04;76.61
77247;SHT35;66279;42.820;23.374;2023-06-14T15:36:59;22.12;76.65
77247;SHT35;66279;42.820;23.374;2023-06-14T15:39:25;22.18;77.11
77247;SHT35;66279;42.820;23.374;2023-06-14T15:41:52;22.14;75.58
77247;SHT35;66279;42.820;23.374;2023-06-14T15:44:17;22.00;76.18
77247;SHT35;66279;42.820;23.374;2023-06-14T15:46:43;21.86;76.68
77247;SHT35;66279;42.820;23.374;2023-06-14T15:49:12;21.77;77.48
77247;SHT35;66279;42.820;23.374;2023-06-14T15:51:38;21.74;77.44
77247;SHT35;66279;42.820;23.374;2023-06-14T15:54:04;21.70;78.18
77247;SHT35;66279;42.820;23.374;2023-06-14T15:56:30;21.68;76.72
77247;SHT35;66279;42.820;23.374;2023-06-14T15:58:56;21.64;77.54
77247;SHT35;66279;42.820;23.374;2023-06-14T16:01:22;21.67;77.58
77247;SHT35;66279;42.820;23.374;2023-06-14T16:03:48;21.71;77.38
77247;SHT35;66279;42.820;23.374;2023-06-14T16:06:14;21.66;76.62
77247;SHT35;66279;42.820;23.374;2023-06-14T16:08:39;21.46;75.98
77247;SHT35;66279;42.820;23.374;2023-06-14T16:11:05;21.49;77.39
77247;SHT35;66279;42.820;23.374;2023-06-14T16:13:30;21.50;76.84
77247;SHT35;66279;42.820;23.374;2023-06-14T16:15:56;21.50;76.77
77247;SHT35;66279;42.820;23.374;2023-06-14T16:18:21;21.42;79.24
77247;SHT35;66279;42.820;23.374;2023-06-14T16:20:47;21.26;76.49
77247;SHT35;66279;42.820;23.374;2023-06-14T16:23:13;21.06;75.87
77247;SHT35;66279;42.820;23.374;2023-06-14T16:25:38;20.79;76.11
77247;SHT35;66279;42.820;23.374;2023-06-14T16:28:05;20.64;75.98
77247;SHT35;66279;42.820;23.374;2023-06-14T16:30:30;20.45;76.44
77247;SHT35;66279;42.820;23.374;2023-06-14T16:32:56;20.37;77.78
77247;SHT35;66279;42.820;23.374;2023-06-14T16:35:22;20.16;77.83
77247;SHT35;66279;42.820;23.374;2023-06-14T16:37:48;19.99;76.85
77247;SHT35;66279;42.820;23.374;2023-06-14T16:40:13;19.85;78.15
77247;SHT35;66279;42.820;23.374;2023-06-14T16:42:39;19.76;78.00
77247;SHT35;66279;42.820;23.374;2023-06-14T16:45:05;19.72;78.68
77247;SHT35;66279;42.820;23.374;2023-06-14T16:47:31;19.70;78.17
77247;SHT35;66279;42.820;23.374;2023-06-14T16:49:56;19.65;78.34
77247;SHT35;66279;42.820;23.374;2023-06-14T16:52:22;19.68;78.69
77247;SHT35;66279;42.820;23.374;2023-06-14T16:54:47;19.66;78.80
77247;SHT35;66279;42.820;23.374;2023-06-14T16:57:13;19.70;77.86
77247;SHT35;66279;42.820;23.374;2023-06-14T16:59:38;19.61;79.37
77247;SHT35;66279;42.820;23.374;2023-06-14T17:02:04;19.65;78.76
77247;SHT35;66279;42.820;23.374;2023-06-14T17:04:31;19.63;78.57
77247;SHT35;66279;42.820;23.374;2023-06-14T17:06:57;19.63;78.31
77247;SHT35;66279;42.820;23.374;2023-06-14T17:09:23;19.61;78.86
77247;SHT35;66279;42.820;23.374;2023-06-14T17:11:48;19.65;79.70
77247;SHT35;66279;42.820;23.374;2023-06-14T17:14:14;19.66;80.88
77247;SHT35;66279;42.820;23.374;2023-06-14T17:16:40;19.63;80.51
77247;SHT35;66279;42.820;23.374;2023-06-14T17:19:06;19.59;81.02
77247;SHT35;66279;42.820;23.374;2023-06-14T17:21:32;19.66;80.17
77247;SHT35;66279;42.820;23.374;2023-06-14T17:23:57;19.72;80.86
77247;SHT35;66279;42.820;23.374;2023-06-14T17:26:23;19.72;79.59
77247;SHT35;66279;42.820;23.374;2023-06-14T17:28:51;19.59;80.67
77247;SHT35;66279;42.820;23.374;2023-06-14T17:31:16;19.61;79.50
77247;SHT35;66279;42.820;23.374;2023-06-14T17:33:42;19.65;79.61
77247;SHT35;66279;42.820;23.374;2023-06-14T17:36:07;19.66;79.71
77247;SHT35;66279;42.820;23.374;2023-06-14T17:38:34;19.51;80.24
77247;SHT35;66279;42.820;23.374;2023-06-14T17:41:02;19.49;80.37
77247;SHT35;66279;42.820;23.374;2023-06-14T17:43:30;19.47;81.34
77247;SHT35;66279;42.820;23.374;2023-06-14T17:45:56;19.41;81.00
77247;SHT35;66279;42.820;23.374;2023-06-14T17:48:21;19.44;79.90
77247;SHT35;66279;42.820;23.374;2023-06-14T17:50:47;19.52;79.36
77247;SHT35;66279;42.820;23.374;2023-06-14T17:53:12;19.57;82.42
77247;SHT35;66279;42.820;23.374;2023-06-14T17:55:38;19.61;81.58
77247;SHT35;66279;42.820;23.374;2023-06-14T17:58:04;19.59;82.36
77247;SHT35;66279;42.820;23.374;2023-06-14T18:00:30;19.62;80.51
77247;SHT35;66279;42.820;23.374;2023-06-14T18:02:56;19.58;80.65
77247;SHT35;66279;42.820;23.374;2023-06-14T18:05:24;19.48;81.11
77247;SHT35;66279;42.820;23.374;2023-06-14T18:07:51;19.42;82.37
77247;SHT35;66279;42.820;23.374;2023-06-14T18:10:16;19.38;82.15
77247;SHT35;66279;42.820;23.374;2023-06-14T18:12:43;19.25;83.15
77247;SHT35;66279;42.820;23.374;2023-06-14T18:15:09;19.18;82.49
77247;SHT35;66279;42.820;23.374;2023-06-14T18:17:35;19.21;82.36
77247;SHT35;66279;42.820;23.374;2023-06-14T18:20:01;19.21;82.70
77247;SHT35;66279;42.820;23.374;2023-06-14T18:22:28;19.18;82.89
77247;SHT35;66279;42.820;23.374;2023-06-14T18:24:54;19.14;82.11
77247;SHT35;66279;42.820;23.374;2023-06-14T18:27:21;19.14;82.88
77247;SHT35;66279;42.820;23.374;2023-06-14T18:29:46;19.04;83.60
77247;SHT35;66279;42.820;23.374;2023-06-14T18:32:12;18.89;84.13
77247;SHT35;66279;42.820;23.374;2023-06-14T18:34:38;18.74;84.68
77247;SHT35;66279;42.820;23.374;2023-06-14T18:37:04;18.64;84.37
77247;SHT35;66279;42.820;23.374;2023-06-14T18:39:32;18.60;84.58
77247;SHT35;66279;42.820;23.374;2023-06-14T18:41:57;18.52;84.82
77247;SHT35;66279;42.820;23.374;2023-06-14T18:44:24;18.52;84.42
77247;SHT35;66279;42.820;23.374;2023-06-14T18:46:50;18.57;84.84
77247;SHT35;66279;42.820;23.374;2023-06-14T18:49:16;18.57;85.44
77247;SHT35;66279;42.820;23.374;2023-06-14T18:51:41;18.59;84.82
77247;SHT35;66279;42.820;23.374;2023-06-14T18:54:08;18.59;84.10
77247;SHT35;66279;42.820;23.374;2023-06-14T18:56:33;18.60;84.63
77247;SHT35;66279;42.820;23.374;2023-06-14T18:59:00;18.60;84.48
77247;SHT35;66279;42.820;23.374;2023-06-14T19:01:28;18.57;84.80
77247;SHT35;66279;42.820;23.374;2023-06-14T19:03:55;18.60;84.62
77247;SHT35;66279;42.820;23.374;2023-06-14T19:06:20;18.63;85.06
77247;SHT35;66279;42.820;23.374;2023-06-14T19:08:48;18.62;84.97
77247;SHT35;66279;42.820;23.374;2023-06-14T19:11:13;18.63;84.75
77247;SHT35;66279;42.820;23.374;2023-06-14T19:13:39;18.55;85.35
77247;SHT35;66279;42.820;23.374;2023-06-14T19:16:05;18.51;84.51
77247;SHT35;66279;42.820;23.374;2023-06-14T19:18:31;18.43;84.73
77247;SHT35;66279;42.820;23.374;2023-06-14T19:20:57;18.25;86.19
77247;SHT35;66279;42.820;23.374;2023-06-14T19:23:23;18.21;85.59
77247;SHT35;66279;42.820;23.374;2023-06-14T19:25:49;18.18;85.20
77247;SHT35;66279;42.820;23.374;2023-06-14T19:28:15;18.09;86.71
77247;SHT35;66279;42.820;23.374;2023-06-14T19:30:42;18.08;85.60
77247;SHT35;66279;42.820;23.374;2023-06-14T19:33:10;17.98;86.72
77247;SHT35;66279;42.820;23.374;2023-06-14T19:35:37;18.01;85.55
77247;SHT35;66279;42.820;23.374;2023-06-14T19:38:03;18.04;85.15
77247;SHT35;66279;42.820;23.374;2023-06-14T19:40:29;18.05;85.41
77247;SHT35;66279;42.820;23.374;2023-06-14T19:42:54;18.05;85.43
77247;SHT35;66279;42.820;23.374;2023-06-14T19:45:20;18.06;84.84
77247;SHT35;66279;42.820;23.374;2023-06-14T19:47:46;18.01;85.46
77247;SHT35;66279;42.820;23.374;2023-06-14T19:50:11;17.94;85.09
77247;SHT35;66279;42.820;23.374;2023-06-14T19:52:37;17.90;85.14
77247;SHT35;66279;42.820;23.374;2023-06-14T19:55:03;17.87;85.76
77247;SHT35;66279;42.820;23.374;2023-06-14T19:57:28;17.84;86.31
77247;SHT35;66279;42.820;23.374;2023-06-14T19:59:54;17.83;86.07
77247;SHT35;66279;42.820;23.374;2023-06-14T20:02:20;17.78;86.97
77247;SHT35;66279;42.820;23.374;2023-06-14T20:04:46;17.73;86.84
77247;SHT35;66279;42.820;23.374;2023-06-14T20:07:11;17.71;86.45
77247;SHT35;66279;42.820;23.374;2023-06-14T20:09:38;17.67;86.18
77247;SHT35;66279;42.820;23.374;2023-06-14T20:12:04;17.66;86.67
77247;SHT35;66279;42.820;23.374;2023-06-14T20:14:30;17.54;87.74
77247;SHT35;66279;42.820;23.374;2023-06-14T20:16:56;17.50;87.05
77247;SHT35;66279;42.820;23.374;2023-06-14T20:19:21;17.54;86.83
77247;SHT35;66279;42.820;23.374;2023-06-14T20:21:47;17.55;86.65
77247;SHT35;66279;42.820;23.374;2023-06-14T20:24:12;17.47;86.92
77247;SHT35;66279;42.820;23.374;2023-06-14T20:26:38;17.46;87.38
77247;SHT35;66279;42.820;23.374;2023-06-14T20:29:03;17.46;86.71
77247;SHT35;66279;42.820;23.374;2023-06-14T20:31:29;17.50;86.63
77247;SHT35;66279;42.820;23.374;2023-06-14T20:33:55;17.51;87.23
77247;SHT35;66279;42.820;23.374;2023-06-14T20:36:20;17.50;86.86
77247;SHT35;66279;42.820;23.374;2023-06-14T20:38:47;17.49;86.42
77247;SHT35;66279;42.820;23.374;2023-06-14T20:41:13;17.49;86.54
77247;SHT35;66279;42.820;23.374;2023-06-14T20:43:39;17.51;85.87
77247;SHT35;66279;42.820;23.374;2023-06-14T20:46:04;17.53;85.88
77247;SHT35;66279;42.820;23.374;2023-06-14T20:48:32;17.50;86.23
77247;SHT35;66279;42.820;23.374;2023-06-14T20:50:58;17.47;85.56
77247;SHT35;66279;42.820;23.374;2023-06-14T20:53:24;17.51;86.75
77247;SHT35;66279;42.820;23.374;2023-06-14T20:55:49;17.43;87.75
77247;SHT35;66279;42.820;23.374;2023-06-14T20:58:15;17.46;86.64
77247;SHT35;66279;42.820;23.374;2023-06-14T21:00:42;17.40;87.19
77247;SHT35;66279;42.820;23.374;2023-06-14T21:03:13;17.32;86.91
77247;SHT35;66279;42.820;23.374;2023-06-14T21:05:38;17.26;87.39
77247;SHT35;66279;42.820;23.374;2023-06-14T21:08:05;17.25;88.86
77247;SHT35;66279;42.820;23.374;2023-06-14T21:10:30;17.26;88.08
77247;SHT35;66279;42.820;23.374;2023-06-14T21:12:57;17.30;87.12
77247;SHT35;66279;42.820;23.374;2023-06-14T21:15:23;17.39;87.12
77247;SHT35;66279;42.820;23.374;2023-06-14T21:17:52;17.40;87.48
77247;SHT35;66279;42.820;23.374;2023-06-14T21:20:18;17.46;87.10
77247;SHT35;66279;42.820;23.374;2023-06-14T21:22:43;17.49;87.75
77247;SHT35;66279;42.820;23.374;2023-06-14T21:25:09;17.50;88.08
77247;SHT35;66279;42.820;23.374;2023-06-14T21:27:35;17.54;89.49
77247;SHT35;66279;42.820;23.374;2023-06-14T21:30:02;17.51;88.79
77247;SHT35;66279;42.820;23.374;2023-06-14T21:32:28;17.43;87.99
77247;SHT35;66279;42.820;23.374;2023-06-14T21:34:54;17.33;87.43